Strona główna
METAR-TAF:

METAR-TAF

Lotnisko :

Port lotniczy Lampang

Lampang, Tajlandia

Szerokość geograficzna: 18-17N, Długość geograficzna: 099-31E, wysokość: 241 m

Aktualna obserwacja pogody

Raport powstał 1 godzina i 13 minut temu, godzina 04:00 UTC
Wiatr 6 kt od północno-północny wschód, zmienny między zachodnio-północny zachód i wschodnio-północny wschód
Temperatura 23°C
Wilgotność 38%
Ciśnienie 1023 hPa
Widzialność 10 km lub więcej
Brak chmur poniżej 1500 m i brak chmur cumulonimbus

METAR: VTCL 070400Z 02006KT 300V060 CAVOK 23/08 Q1023 NOSIG

czas: 12:13 (05:13 UTC)

Prognoza

Raport powstał 6 godziny i 13 minut temu, godzina 23:00 UTC
Prognoza ważna od 07 godzina 00 UTC do 07 godzina 24 UTC
Wiatr 5 kt od wschodnio-północny wschód
Widzialność 10 km lub więcej
Mało chmury na wysokości 4000 ft

TAF: VTCL 062300Z 0700/0724 07005KT 9999 FEW040

Obserwacja i prognoza pogody dla ponad 4000 lotnisk (raport METAR i TAF).

Dostępne stacje oznaczono żółtymi i czerwonymi punktami na mapie.

Najedź kursorem aby zobaczyć nazwę stacji.

Kliknij aby zobaczyć obserwacje i prognozy pogody.

Aby zmienić mapę: kliknij na zielony przycisk z czarnym krzyżykiem, aby powiększyć; na zielony przycisk z myślnikiem, aby pomniejszyć; na zielone strzałki, aby przejść do map sąsiednich.


METAR-TAF: